Share

Voyageurs National Park, MN

Rainy Lake (IONTARIO24) Elev 1140 ft | 48.61 °N, 93.41 °W | Change Station

Current weather conditions updated 2 seconds ago

Clear
Clear
46.3 °F
Feels Like 46 °F
N
0.0
Wind Variable Wind from ENE
Gusts 0.0 mph
Sunrise 6:13 AM
Sunset 8:12 PM
Moon Waning Gibbous

Tomorrow is forecast to be Much Cooler than today.

Pressure 29.97 in
Visibility 10.0 miles
Clouds Clear
Windchill 46 °F
Dew Point 35 °F
Humidity 65%
Rainfall 0.00 in
Snow Depth Not available.
UV 0 out of 16
Pollen 9.50 out of 12
Air Quality Not available.
Flu Activity Sporadic
METAR KINL 210155Z AUTO 11005KT 10SM CLR 07/01 A2993 RMK AO2 SLP148 T00720006

More Conditions Fewer Conditions

Pressure 29.97 in
Visibility 10.0 miles
Clouds Clear
Windchill 46 °F
Dew Point 35 °F
Humidity 65%
Rainfall 0.00 in
Snow Depth Not available.
UV 0 out of 16
Pollen 9.50 out of 12
Air Quality Not available.
Flu Activity Sporadic
METAR KINL 210155Z AUTO 11005KT 10SM CLR 07/01 A2993 RMK AO2 SLP148 T00720006

More Conditions Fewer Conditions

10-Day Weather Forecast

Almanac

Astronomy

Apr. 20, 2014 Rise Set
Actual Time 6:13 AM CDT 8:12 PM CDT
Civil Twilight 5:39 AM CDT 8:46 PM CDT
Nautical Twilight 4:58 AM CDT 9:28 PM CDT
Astronomical Twilight 4:12 AM CDT 10:14 PM CDT
Moon 1:02 AM CDT (4/20) 10:25 AM CDT (4/20)
Length of Visible Light 15h 06m
Length of Day
13h 58m
Tomorrow will be 3m 21s longer.
Waning Gibbous, 64% of the Moon is Illuminated
Today
Waning Gibbous
Apr 22
Last Quarter
Apr 29
New
May 6
First Quarter
May 14
Full

Today's Extremes

State Highs State Lows

Community

  • Sun Pillar and Geese
    Sun Pillar and Geese
  • Easter Morning Fog
    Easter Morning Fog
  • Easter Dance
    Easter Dance
  • spring skiing mount Baker WA
    spring skiing mount Baker WA
  • Morning Sun
    Morning Sun

WunderPhotos

Upload Photos

1,703,518 photos uploaded!

WunderBlogs® & News

Nearby

Snow Depth

Station Depth Elevation
No new snow has been reported.

Coastal Water Temperatures

Place Temperature
No Stations Reporting

Earthquake Activity

City Distance Mag. Time & Date
No recent earthquake activity has been reported nearby.
Minimum magnitude displayed is 2.5.

Nearby Weather Stations

Station Location Temp. Windchill Dew Point Humidity Wind Precip. Elev Updated Type
Rainy Lake, Fort Frances 46.3 °F 46 °F 35 °F 65% ENE  at  0.0 mph 0.00 in / hr 1140 ft 9:16 PM CDT Rapid Fire
Crabtree Blvd, International Falls, MN 46.3 °F 46 °F 37 °F 69% NNE  at  0.0 mph - / hr 1122 ft 9:16 PM CDT Rapid Fire
LaVallee, Devlin 42.1 °F 40 °F 35 °F 76% East  at  4.0 mph 0.00 in / hr 1142 ft 9:09 PM CDT Normal
RAWS LITTLEFORK MN, Littlefork, MN 55 °F - 33 °F 44% ESE  at  4 mph 0.00 in / hr 1130 ft 8:08 PM CDT MADIS
RAWS KABNAM MN, Ray, MN 54 °F - 34 °F 47% North  at  0 mph 0.00 in / hr 1200 ft 7:31 PM CDT MADIS

Show More Stations Show Fewer Stations

What do you think?

We're not finished. Please let us know what you like, what you don't like, and what you are still missing.